createdAt,value
2023-01-17T00:00:03.598Z,95805.31
2023-01-17T00:02:31.143Z,95793.22
2023-01-17T00:05:13.125Z,95792.25
2023-01-17T00:07:54.904Z,95798.84
2023-01-17T00:10:24.450Z,95801.44
2023-01-17T00:12:53.310Z,95793.84
2023-01-17T00:15:21.033Z,95793.38
2023-01-17T00:17:48.798Z,95793.38
2023-01-17T00:20:32.686Z,95801.69
2023-01-17T00:23:14.458Z,95811.09
2023-01-17T00:25:56.555Z,95806.91
2023-01-17T00:28:24.420Z,95808.25
2023-01-17T00:30:51.451Z,95805.19
2023-01-17T00:33:18.522Z,95800.19
2023-01-17T00:35:45.032Z,95802.69
2023-01-17T00:38:14.451Z,95808.03
2023-01-17T00:40:43.389Z,95803.91
2023-01-17T00:43:27.128Z,95813.97
2023-01-17T00:46:09.429Z,95815.78
2023-01-17T00:48:52.784Z,95808.06
2023-01-17T00:51:35.579Z,95823.41
2023-01-17T00:54:19.046Z,95824.06
2023-01-17T00:57:01.456Z,95835.06
2023-01-17T00:59:43.283Z,95835.84
2023-01-17T01:02:27.590Z,95836.63
2023-01-17T01:05:10.448Z,95839.47
2023-01-17T01:07:52.205Z,95845.50
2023-01-17T01:10:34.037Z,95840.75
2023-01-17T01:13:15.828Z,95838.03
2023-01-17T01:15:57.642Z,95833.84
2023-01-17T01:18:39.634Z,95840.31
2023-01-17T01:21:21.474Z,95832.16
2023-01-17T01:24:03.457Z,95828.06
2023-01-17T01:26:45.302Z,95843.13
2023-01-17T01:29:27.076Z,95843.94
2023-01-17T01:32:08.869Z,95844.28
2023-01-17T01:34:35.484Z,95844.06
2023-01-17T01:37:02.069Z,95842.47
2023-01-17T01:39:28.619Z,95840.53
2023-01-17T01:41:55.173Z,95844.50
2023-01-17T01:44:46.006Z,95840.09
2023-01-17T01:47:21.544Z,95844.31
2023-01-17T01:49:48.789Z,95847.03
2023-01-17T01:52:17.498Z,95842.28
2023-01-17T01:54:53.801Z,95841.72
2023-01-17T01:57:24.531Z,95839.13
2023-01-17T01:59:58.352Z,95843.53
2023-01-17T02:02:25.709Z,95852.28
2023-01-17T02:04:52.672Z,95848.75
2023-01-17T02:07:29.220Z,95845.13
2023-01-17T02:09:55.816Z,95851.72
2023-01-17T02:12:23.493Z,95850.59
2023-01-17T02:14:50.069Z,95843.34
2023-01-17T02:17:47.159Z,95840.03
2023-01-17T02:20:42.745Z,95843.44
2023-01-17T02:23:38.243Z,95843.53
2023-01-17T02:26:21.195Z,95848.75
2023-01-17T02:29:10.899Z,95847.50
2023-01-17T02:31:58.180Z,95855.91
2023-01-17T02:34:28.668Z,95857.84
2023-01-17T02:37:06.479Z,95856.13
2023-01-17T02:39:40.321Z,95856.25
2023-01-17T02:42:12.781Z,95843.31
2023-01-17T02:44:42.112Z,95850.09
2023-01-17T02:47:24.007Z,95855.09
2023-01-17T02:49:53.677Z,95858.72
2023-01-17T02:52:52.504Z,95855.75
2023-01-17T02:55:32.692Z,95852.81
2023-01-17T02:58:15.731Z,95857.81
2023-01-17T03:00:42.380Z,95854.63
2023-01-17T03:03:24.296Z,95857.69
2023-01-17T03:06:11.910Z,95869.13
2023-01-17T03:08:41.353Z,95865.50
2023-01-17T03:11:09.800Z,95871.03
2023-01-17T03:13:37.343Z,95856.97
2023-01-17T03:16:11.871Z,95868.63
2023-01-17T03:18:39.188Z,95861.75
2023-01-17T03:21:05.971Z,95861.19
2023-01-17T03:23:32.563Z,95869.88
2023-01-17T03:25:59.129Z,95865.00
2023-01-17T03:28:28.907Z,95870.34
2023-01-17T03:30:58.768Z,95871.78
2023-01-17T03:33:25.415Z,95879.84
2023-01-17T03:35:52.901Z,95882.75
2023-01-17T03:38:19.611Z,95888.22
2023-01-17T03:40:46.414Z,95875.53
2023-01-17T03:43:13.011Z,95875.53
2023-01-17T03:45:39.642Z,95879.88
2023-01-17T03:48:06.607Z,95872.84
2023-01-17T03:50:33.247Z,95887.59
2023-01-17T03:52:59.878Z,95879.19
2023-01-17T03:55:26.565Z,95884.72
2023-01-17T03:57:53.111Z,95880.00
2023-01-17T04:00:20.850Z,95880.69
2023-01-17T04:02:47.455Z,95883.06
2023-01-17T04:05:14.167Z,95884.06
2023-01-17T04:07:41.224Z,95882.47
2023-01-17T04:10:08.078Z,95875.22
2023-01-17T04:12:34.686Z,95865.59
2023-01-17T04:15:01.250Z,95861.53
2023-01-17T04:17:27.861Z,95861.84
2023-01-17T04:19:54.467Z,95865.47
2023-01-17T04:22:21.037Z,95870.91
2023-01-17T04:24:47.622Z,95865.81
2023-01-17T04:27:14.413Z,95868.31
2023-01-17T04:29:41.167Z,95864.59
2023-01-17T04:32:07.790Z,95874.09
2023-01-17T04:34:34.457Z,95880.59
2023-01-17T04:37:01.025Z,95876.97
2023-01-17T04:39:27.656Z,95875.50
2023-01-17T04:41:54.236Z,95876.53
2023-01-17T04:44:20.828Z,95872.13
2023-01-17T04:46:47.424Z,95858.84
2023-01-17T04:49:13.991Z,95853.88
2023-01-17T04:51:40.609Z,95854.19
2023-01-17T04:54:07.196Z,95857.38
2023-01-17T04:56:33.783Z,95866.56
2023-01-17T04:59:00.416Z,95866.09
2023-01-17T05:01:27.373Z,95861.47
2023-01-17T05:03:54.012Z,95877.25
2023-01-17T05:06:20.719Z,95875.19
2023-01-17T05:08:47.326Z,95880.03
2023-01-17T05:11:13.949Z,95883.22
2023-01-17T05:13:40.561Z,95886.06
2023-01-17T05:16:07.417Z,95892.41
2023-01-17T05:18:34.011Z,95892.31
2023-01-17T05:21:02.374Z,95893.75
2023-01-17T05:23:29.002Z,95897.97
2023-01-17T05:25:55.670Z,95895.13
2023-01-17T05:28:22.283Z,95898.50
2023-01-17T05:30:48.983Z,95900.78
2023-01-17T05:33:15.759Z,95903.41
2023-01-17T05:35:42.329Z,95910.28
2023-01-17T05:38:08.933Z,95918.34
2023-01-17T05:40:35.620Z,95916.66
2023-01-17T05:43:04.053Z,95917.78
2023-01-17T05:45:32.496Z,95918.16
2023-01-17T05:47:59.445Z,95921.09
2023-01-17T05:50:30.133Z,95929.84
2023-01-17T05:53:02.003Z,95918.75
2023-01-17T05:55:30.623Z,95921.34
2023-01-17T05:57:57.282Z,95920.66
2023-01-17T06:00:24.383Z,95930.06
2023-01-17T06:02:54.455Z,95930.06
2023-01-17T06:05:22.345Z,95924.84
2023-01-17T06:07:49.474Z,95939.28
2023-01-17T06:10:18.418Z,95949.69
2023-01-17T06:12:46.536Z,95945.72
2023-01-17T06:15:15.371Z,95946.88
2023-01-17T06:17:41.991Z,95949.13
2023-01-17T06:20:10.482Z,95946.97
2023-01-17T06:22:37.179Z,95945.25
2023-01-17T06:25:04.174Z,95942.44
2023-01-17T06:27:30.871Z,95938.00
2023-01-17T06:29:57.459Z,95939.03
2023-01-17T06:32:24.082Z,95951.72
2023-01-17T06:34:50.730Z,95946.06
2023-01-17T06:37:17.319Z,95954.66
2023-01-17T06:39:44.053Z,95959.34
2023-01-17T06:42:10.657Z,95949.09
2023-01-17T06:44:37.371Z,95952.16
2023-01-17T06:47:03.967Z,95949.56
2023-01-17T06:49:30.586Z,95961.47
2023-01-17T06:51:57.148Z,95973.22
2023-01-17T06:54:23.748Z,95976.28
2023-01-17T06:56:50.288Z,95980.94
2023-01-17T06:59:16.883Z,95985.13
2023-01-17T07:01:43.524Z,95989.53
2023-01-17T07:04:10.194Z,95997.16
2023-01-17T07:06:37.216Z,95996.94
2023-01-17T07:09:04.766Z,96006.31
2023-01-17T07:11:31.887Z,95997.03
2023-01-17T07:13:58.563Z,96001.41
2023-01-17T07:16:25.305Z,95999.50
2023-01-17T07:18:52.081Z,95996.22
2023-01-17T07:21:18.959Z,95997.03
2023-01-17T07:23:45.621Z,96000.19
2023-01-17T07:26:12.180Z,95989.53
2023-01-17T07:28:42.029Z,95986.25
2023-01-17T07:31:11.882Z,95992.84
2023-01-17T07:33:38.548Z,95998.06
2023-01-17T07:36:07.474Z,95990.13
2023-01-17T07:38:34.642Z,95986.50
2023-01-17T07:41:01.448Z,95983.78
2023-01-17T07:43:28.163Z,95981.97
2023-01-17T07:45:54.909Z,95979.72
2023-01-17T07:48:24.284Z,95985.41
2023-01-17T07:50:54.541Z,95984.06
2023-01-17T07:53:23.299Z,95975.78
2023-01-17T07:55:49.873Z,95980.31
2023-01-17T07:58:16.761Z,95978.41
2023-01-17T08:00:44.893Z,95982.03
2023-01-17T08:03:14.177Z,95982.81
2023-01-17T08:05:42.354Z,95981.25
2023-01-17T08:08:09.072Z,95984.88
2023-01-17T08:10:36.106Z,95989.00
2023-01-17T08:13:02.772Z,95990.47
2023-01-17T08:15:29.419Z,95992.22
2023-01-17T08:17:57.734Z,95993.31
2023-01-17T08:20:27.566Z,95985.09
2023-01-17T08:22:56.227Z,95987.66
2023-01-17T08:25:25.187Z,95989.47
2023-01-17T08:27:56.161Z,95988.38
2023-01-17T08:30:22.999Z,95989.34
2023-01-17T08:32:49.628Z,95986.03
2023-01-17T08:35:16.276Z,95986.34
2023-01-17T08:37:42.903Z,95987.19
2023-01-17T08:40:11.174Z,95989.97
2023-01-17T08:42:40.136Z,95995.50
2023-01-17T08:45:09.978Z,96003.81
2023-01-17T08:47:37.117Z,96015.63
2023-01-17T08:50:06.771Z,96019.91
2023-01-17T08:52:33.922Z,96021.78
2023-01-17T08:55:00.471Z,96025.09
2023-01-17T08:57:27.094Z,96020.44
2023-01-17T08:59:53.627Z,96021.31
2023-01-17T09:02:20.600Z,96030.44
2023-01-17T09:04:48.581Z,96021.88
2023-01-17T09:07:17.662Z,96018.63
2023-01-17T09:09:44.504Z,96022.22
2023-01-17T09:12:11.159Z,96023.16
2023-01-17T09:14:38.318Z,96016.31
2023-01-17T09:17:06.901Z,96005.84
2023-01-17T09:19:33.731Z,96005.84
2023-01-17T09:22:00.327Z,96006.00
2023-01-17T09:24:26.952Z,95997.47
2023-01-17T09:26:53.563Z,96002.03
2023-01-17T09:29:20.245Z,95990.13
2023-01-17T09:31:48.232Z,95991.72
2023-01-17T09:34:15.201Z,95985.56
2023-01-17T09:36:42.516Z,95985.25
2023-01-17T09:39:10.782Z,95985.31
2023-01-17T09:41:49.901Z,95983.06
2023-01-17T09:44:37.359Z,95969.28
2023-01-17T09:47:16.073Z,95960.00
2023-01-17T09:49:44.997Z,95948.44
2023-01-17T09:52:15.184Z,95946.84
2023-01-17T09:54:44.666Z,95934.69
2023-01-17T09:57:42.023Z,95932.50
2023-01-17T10:00:08.589Z,95925.25
2023-01-17T10:02:47.431Z,95926.59
2023-01-17T10:05:44.717Z,95913.38
2023-01-17T10:08:18.591Z,95916.50
2023-01-17T10:11:05.054Z,95908.78
2023-01-17T10:13:47.013Z,95901.88
2023-01-17T10:16:44.390Z,95893.91
2023-01-17T10:19:17.986Z,95889.84
2023-01-17T10:22:02.408Z,95887.22
2023-01-17T10:24:44.307Z,95880.84
2023-01-17T10:27:28.164Z,95877.41
2023-01-17T10:29:54.822Z,95876.38
2023-01-17T10:32:25.980Z,95872.34
2023-01-17T10:34:53.449Z,95860.13
2023-01-17T10:37:31.518Z,95858.44
2023-01-17T10:40:14.043Z,95849.72
2023-01-17T10:42:52.402Z,95846.50
2023-01-17T10:45:28.384Z,95843.13
2023-01-17T10:48:15.551Z,95832.06
2023-01-17T10:50:54.919Z,95828.06
2023-01-17T10:53:37.949Z,95829.94
2023-01-17T10:56:05.015Z,95822.00
2023-01-17T10:58:31.861Z,95830.66
2023-01-17T11:01:02.157Z,95822.53
2023-01-17T11:03:29.337Z,95806.66
2023-01-17T11:06:16.154Z,95811.03
2023-01-17T11:08:57.974Z,95811.41
2023-01-17T11:11:31.024Z,95803.88
2023-01-17T11:14:00.932Z,95801.81
2023-01-17T11:16:31.414Z,95813.44
2023-01-17T11:19:25.859Z,95809.59
2023-01-17T11:21:57.738Z,95803.34
2023-01-17T11:24:32.005Z,95807.31
2023-01-17T11:26:58.900Z,95793.25
2023-01-17T11:29:39.079Z,95781.66
2023-01-17T11:32:28.926Z,95768.91
2023-01-17T11:35:16.377Z,95752.63
2023-01-17T11:38:05.039Z,95744.53
2023-01-17T11:40:40.457Z,95734.03
2023-01-17T11:43:23.930Z,95713.53
2023-01-17T11:46:14.195Z,95703.00
2023-01-17T11:48:40.848Z,95687.44
2023-01-17T11:51:20.732Z,95682.28
2023-01-17T11:53:48.386Z,95680.00
2023-01-17T11:56:33.051Z,95667.13
2023-01-17T11:59:14.923Z,95667.31
2023-01-17T12:01:55.788Z,95676.84
2023-01-17T12:04:25.140Z,95671.31
2023-01-17T12:07:09.615Z,95684.97
2023-01-17T12:09:52.536Z,95679.72
2023-01-17T12:12:41.673Z,95691.31
2023-01-17T12:15:08.303Z,95703.66
2023-01-17T12:17:35.820Z,95711.59
2023-01-17T12:20:06.117Z,95707.88
2023-01-17T12:22:48.068Z,95704.75
2023-01-17T12:25:30.055Z,95707.91
2023-01-17T12:28:03.861Z,95716.84
2023-01-17T12:30:57.412Z,95713.69
2023-01-17T12:33:39.355Z,95709.75
2023-01-17T12:36:19.283Z,95716.31
2023-01-17T12:38:48.320Z,95715.25
2023-01-17T12:41:23.486Z,95716.28
2023-01-17T12:43:55.266Z,95710.50
2023-01-17T12:46:43.192Z,95700.00
2023-01-17T12:49:22.245Z,95701.56
2023-01-17T12:51:53.869Z,95694.44
2023-01-17T12:54:33.502Z,95688.66
2023-01-17T12:57:09.417Z,95684.72
2023-01-17T12:59:46.180Z,95680.00
2023-01-17T13:02:21.492Z,95668.16
2023-01-17T13:04:59.088Z,95655.53
2023-01-17T13:07:45.559Z,95645.53
2023-01-17T13:10:32.921Z,95643.72
2023-01-17T13:13:09.667Z,95625.81
2023-01-17T13:15:40.549Z,95624.00
2023-01-17T13:18:14.608Z,95617.69
2023-01-17T13:21:11.822Z,95606.91
2023-01-17T13:23:56.157Z,95604.53
2023-01-17T13:26:39.261Z,95598.50
2023-01-17T13:29:31.814Z,95600.31
2023-01-17T13:32:33.586Z,95602.94
2023-01-17T13:35:11.700Z,95604.25
2023-01-17T13:38:13.618Z,95601.63
2023-01-17T13:40:58.667Z,95597.94
2023-01-17T13:43:30.613Z,95600.59
2023-01-17T13:46:00.377Z,95598.25
2023-01-17T13:48:31.305Z,95592.44
2023-01-17T13:50:58.875Z,95592.69
2023-01-17T13:53:40.626Z,95580.34
2023-01-17T13:56:22.409Z,95581.66
2023-01-17T13:58:50.269Z,95573.78
2023-01-17T14:01:52.509Z,95571.94
2023-01-17T14:04:19.767Z,95573.25
2023-01-17T14:06:52.842Z,95574.81
2023-01-17T14:09:30.620Z,95579.31
2023-01-17T14:12:24.642Z,95572.97
2023-01-17T14:14:55.535Z,95578.22
2023-01-17T14:17:23.015Z,95577.19
2023-01-17T14:19:53.118Z,95572.75
2023-01-17T14:22:19.655Z,95561.72
2023-01-17T14:25:15.022Z,95552.78
2023-01-17T14:27:42.620Z,95540.16
2023-01-17T14:30:22.395Z,95524.19
2023-01-17T14:33:08.854Z,95509.22
2023-01-17T14:35:40.586Z,95500.56
2023-01-17T14:38:23.780Z,95492.69
2023-01-17T14:40:54.525Z,95485.63
2023-01-17T14:43:24.522Z,95479.31
2023-01-17T14:45:59.299Z,95468.06
2023-01-17T14:48:26.602Z,95472.50
2023-01-17T14:50:57.393Z,95486.16
2023-01-17T14:53:28.153Z,95501.09
2023-01-17T14:55:57.666Z,95489.28
2023-01-17T14:58:27.723Z,95480.38
2023-01-17T15:01:00.011Z,95469.09
2023-01-17T15:03:27.610Z,95460.41
2023-01-17T15:05:56.472Z,95445.47
2023-01-17T15:08:29.026Z,95445.72
2023-01-17T15:11:00.713Z,95433.41
2023-01-17T15:13:43.878Z,95419.78
2023-01-17T15:16:23.548Z,95413.44
2023-01-17T15:18:51.919Z,95422.13
2023-01-17T15:21:22.008Z,95424.22
2023-01-17T15:23:53.003Z,95437.06
2023-01-17T15:26:23.529Z,95432.06
2023-01-17T15:28:50.902Z,95416.34
2023-01-17T15:31:42.240Z,95416.34
2023-01-17T15:34:30.009Z,95414.75
2023-01-17T15:37:00.585Z,95410.59
2023-01-17T15:39:31.839Z,95406.38
2023-01-17T15:42:01.739Z,95400.59
2023-01-17T15:44:46.712Z,95401.66
2023-01-17T15:47:31.141Z,95400.59
2023-01-17T15:49:58.732Z,95395.88
2023-01-17T15:52:25.420Z,95388.78
2023-01-17T15:54:54.560Z,95384.63
2023-01-17T15:57:37.265Z,95380.41
2023-01-17T16:00:07.730Z,95377.25
2023-01-17T16:02:42.929Z,95361.53
2023-01-17T16:05:25.778Z,95352.88
2023-01-17T16:07:55.223Z,95355.75
2023-01-17T16:10:25.210Z,95364.66
2023-01-17T16:12:53.896Z,95365.97
2023-01-17T16:15:22.118Z,95358.63
2023-01-17T16:17:52.453Z,95364.41
2023-01-17T16:20:37.243Z,95362.00
2023-01-17T16:23:04.108Z,95373.31
2023-01-17T16:25:32.764Z,95379.06
2023-01-17T16:28:00.333Z,95360.44
2023-01-17T16:30:28.164Z,95363.84
2023-01-17T16:32:56.609Z,95364.66
2023-01-17T16:35:25.710Z,95362.03
2023-01-17T16:37:54.653Z,95365.44
2023-01-17T16:40:24.300Z,95345.00
2023-01-17T16:42:51.246Z,95331.34
2023-01-17T16:45:18.787Z,95315.88
2023-01-17T16:47:47.405Z,95300.69
2023-01-17T16:50:17.354Z,95298.31
2023-01-17T16:52:44.079Z,95302.22
2023-01-17T16:55:14.790Z,95309.03
2023-01-17T16:57:42.028Z,95311.16
2023-01-17T17:00:12.094Z,95302.50
2023-01-17T17:02:39.514Z,95315.34
2023-01-17T17:05:08.425Z,95317.69
2023-01-17T17:07:42.803Z,95328.44
2023-01-17T17:10:11.197Z,95331.56
2023-01-17T17:12:37.964Z,95344.16
2023-01-17T17:15:05.480Z,95343.59
2023-01-17T17:17:37.113Z,95340.97
2023-01-17T17:20:04.953Z,95345.16
2023-01-17T17:22:31.755Z,95351.97
2023-01-17T17:24:58.387Z,95346.72
2023-01-17T17:27:27.693Z,95329.97
2023-01-17T17:29:54.502Z,95323.13
2023-01-17T17:32:21.843Z,95333.34
2023-01-17T17:34:50.774Z,95334.66
2023-01-17T17:37:17.810Z,95340.16
2023-01-17T17:39:45.540Z,95346.44
2023-01-17T17:42:12.777Z,95348.53
2023-01-17T17:44:39.589Z,95351.41
2023-01-17T17:47:06.196Z,95346.66
2023-01-17T17:49:32.887Z,95339.34
2023-01-17T17:52:07.997Z,95342.72
2023-01-17T17:54:35.405Z,95335.94
2023-01-17T17:57:02.298Z,95337.50
2023-01-17T17:59:29.877Z,95331.47
2023-01-17T18:01:57.149Z,95329.41
2023-01-17T18:04:23.847Z,95326.78
2023-01-17T18:06:50.517Z,95328.59
2023-01-17T18:09:17.357Z,95344.31
2023-01-17T18:11:44.607Z,95347.19
2023-01-17T18:14:13.621Z,95350.59
2023-01-17T18:16:42.613Z,95352.16
2023-01-17T18:19:14.757Z,95344.31
2023-01-17T18:21:41.700Z,95343.28
2023-01-17T18:24:12.117Z,95338.81
2023-01-17T18:26:43.773Z,95333.06
2023-01-17T18:29:14.871Z,95335.41
2023-01-17T18:31:43.228Z,95332.78
2023-01-17T18:34:13.928Z,95331.75
2023-01-17T18:36:41.076Z,95334.13
2023-01-17T18:39:13.153Z,95335.69
2023-01-17T18:41:40.125Z,95345.09
2023-01-17T18:44:07.563Z,95344.34
2023-01-17T18:46:35.292Z,95354.81
2023-01-17T18:49:02.446Z,95341.47
2023-01-17T18:51:32.242Z,95345.94
2023-01-17T18:54:02.819Z,95349.34
2023-01-17T18:56:32.037Z,95353.81
2023-01-17T18:58:58.780Z,95348.31
2023-01-17T19:01:28.382Z,95332.63
2023-01-17T19:03:58.329Z,95332.88
2023-01-17T19:06:30.365Z,95319.78
2023-01-17T19:08:58.346Z,95316.91
2023-01-17T19:11:26.626Z,95308.00
2023-01-17T19:13:53.847Z,95313.53
2023-01-17T19:16:24.729Z,95310.38
2023-01-17T19:18:52.540Z,95314.31
2023-01-17T19:21:21.990Z,95298.31
2023-01-17T19:23:49.207Z,95309.84
2023-01-17T19:26:17.374Z,95309.88
2023-01-17T19:28:45.318Z,95305.44
2023-01-17T19:31:15.173Z,95300.41
2023-01-17T19:33:48.739Z,95300.97
2023-01-17T19:36:23.496Z,95293.09
2023-01-17T19:39:03.607Z,95280.25
2023-01-17T19:41:35.187Z,95272.91
2023-01-17T19:44:05.345Z,95265.81
2023-01-17T19:46:33.188Z,95269.75
2023-01-17T19:49:00.447Z,95264.25
2023-01-17T19:51:28.041Z,95265.31
2023-01-17T19:53:55.256Z,95259.53
2023-01-17T19:56:25.459Z,95268.44
2023-01-17T19:58:52.864Z,95268.44
2023-01-17T20:01:19.551Z,95267.66
2023-01-17T20:03:46.797Z,95270.78
2023-01-17T20:06:16.224Z,95275.25
2023-01-17T20:08:43.568Z,95278.41
2023-01-17T20:11:14.724Z,95275.78
2023-01-17T20:13:42.622Z,95276.84
2023-01-17T20:16:11.677Z,95273.69
2023-01-17T20:18:38.444Z,95266.63
2023-01-17T20:21:09.472Z,95268.97
2023-01-17T20:23:38.819Z,95269.47
2023-01-17T20:26:06.115Z,95270.56
2023-01-17T20:28:34.740Z,95278.41
2023-01-17T20:31:12.745Z,95283.66
2023-01-17T20:33:41.991Z,95286.53
2023-01-17T20:36:11.565Z,95291.75
2023-01-17T20:38:46.834Z,95283.13
2023-01-17T20:41:16.476Z,95279.72
2023-01-17T20:43:44.953Z,95283.66
2023-01-17T20:46:12.496Z,95292.56
2023-01-17T20:48:48.571Z,95299.63
2023-01-17T20:51:17.115Z,95299.13
2023-01-17T20:53:45.119Z,95309.88
2023-01-17T20:56:14.498Z,95322.69
2023-01-17T20:58:42.128Z,95320.06
2023-01-17T21:01:11.416Z,95322.44
2023-01-17T21:03:39.247Z,95331.06
2023-01-17T21:06:09.993Z,95329.25
2023-01-17T21:08:39.240Z,95335.53
2023-01-17T21:11:07.558Z,95332.38
2023-01-17T21:13:34.938Z,95335.81
2023-01-17T21:16:02.461Z,95331.34
2023-01-17T21:18:31.972Z,95347.06
2023-01-17T21:21:08.244Z,95343.66
2023-01-17T21:23:35.857Z,95340.50
2023-01-17T21:26:02.466Z,95350.47
2023-01-17T21:28:31.516Z,95353.34
2023-01-17T21:30:58.266Z,95346.53
2023-01-17T21:33:26.922Z,95353.59
2023-01-17T21:35:53.487Z,95360.94
2023-01-17T21:38:20.188Z,95359.88
2023-01-17T21:40:47.040Z,95357.50
2023-01-17T21:43:13.720Z,95360.88
2023-01-17T21:45:41.866Z,95362.19
2023-01-17T21:48:12.382Z,95377.91
2023-01-17T21:50:39.565Z,95393.59
2023-01-17T21:53:06.834Z,95392.06
2023-01-17T21:55:48.663Z,95402.56
2023-01-17T21:58:32.773Z,95402.84
2023-01-17T22:01:08.947Z,95425.88
2023-01-17T22:03:36.396Z,95426.94
2023-01-17T22:06:04.909Z,95432.16
2023-01-17T22:08:33.286Z,95440.03
2023-01-17T22:11:04.770Z,95435.75
2023-01-17T22:13:32.591Z,95436.28
2023-01-17T22:16:02.261Z,95445.72
2023-01-17T22:18:29.854Z,95440.47
2023-01-17T22:20:57.168Z,95446.78
2023-01-17T22:23:23.976Z,95436.56
2023-01-17T22:25:50.656Z,95438.66
2023-01-17T22:28:17.355Z,95433.94
2023-01-17T22:30:44.119Z,95439.66
2023-01-17T22:33:10.761Z,95439.94
2023-01-17T22:35:37.481Z,95443.09
2023-01-17T22:38:04.081Z,95444.41
2023-01-17T22:40:32.616Z,95446.47
2023-01-17T22:42:59.535Z,95450.63
2023-01-17T22:45:27.372Z,95449.31
2023-01-17T22:47:54.000Z,95446.44
2023-01-17T22:50:20.604Z,95440.44
2023-01-17T22:52:47.167Z,95438.56
2023-01-17T22:55:13.806Z,95448.50
2023-01-17T22:57:40.431Z,95454.44
2023-01-17T23:00:14.502Z,95453.97
2023-01-17T23:02:41.843Z,95461.56
2023-01-17T23:05:10.058Z,95457.63
2023-01-17T23:07:44.695Z,95466.50
2023-01-17T23:10:13.182Z,95475.06
2023-01-17T23:12:43.227Z,95476.13
2023-01-17T23:15:25.124Z,95464.59
2023-01-17T23:18:11.674Z,95464.59
2023-01-17T23:20:38.281Z,95457.00
2023-01-17T23:23:04.825Z,95462.72
2023-01-17T23:25:31.408Z,95461.91
2023-01-17T23:28:13.311Z,95460.84
2023-01-17T23:30:41.526Z,95460.84
2023-01-17T23:33:09.064Z,95463.72
2023-01-17T23:35:42.404Z,95462.44
2023-01-17T23:38:30.826Z,95473.59
2023-01-17T23:41:18.035Z,95474.47
2023-01-17T23:43:45.070Z,95463.44
2023-01-17T23:46:12.860Z,95473.34
2023-01-17T23:48:39.585Z,95477.50
2023-01-17T23:51:10.957Z,95476.78
2023-01-17T23:53:38.846Z,95486.94
2023-01-17T23:56:14.083Z,95496.84
2023-01-17T23:58:40.769Z,95500.91
